Birjand International Airport

Airport
ICAO code: 
OIMB
IATA Code: 
XBJ
Summary
ICAO Region: 
MID
Territory: 
Location: 
Birjand, South Khorasan
Serving: 
Birjand
Elevation: 
4952 ft
Coordinates: 
Aerial View: 
32° 53' 21.918" N, 59° 17' 22.596" E
Metar
Observation
OIMB 261900Z 13006KT CAVOK 30/M04 Q1011 A2987
Station
Birjand
Date/Time
2022-06-26 19:00:00
Wind direction
130°
Wind speed
06 kts
Lowest cloud amount
clouds and visibility OK
Temperature
30°C
Dew point
-4°C
Humidity
10%
QNH
1011 hPa
Weather condition
n/a

Airport 5km northeast of Birjand, in eastern Iran.

Climatology

Cold desert climate (Köppen climate classification BWk).

Runways

Designator Length Width Surface Rops
8/26 2162 25 ASP No/No
10/28 2902 45 ASP No/No
Airport map: 
Aerial View: 

SKYbrary Partners:

Safety knowledge contributed by: